Have a Safe July 4th! 

Flight Track Log - Related Links

Times and Time Zones

All times are in EDT time to prevent confusion due to time zone crossing. See the CSJ915 flight status page for this flight to view local times or setup timezone preferences in your user account.

Time Position Orientation Groundspeed Altitude Reporting Facility
EDT Latitude Longitude Course Direction KTS MPH feet Rate Location/Type
Tue 06:04:48 PM 40.8875 -81.4856 235° Southwest 120 138 2,500  Level Indianapolis Center
Tue 06:05:50 PM 40.8694 -81.5239 238° Southwest 121 139 3,400 774 Climbing Indianapolis Center
Tue 06:06:52 PM 40.8497 -81.5608 235° Southwest 120 138 4,100 677 Climbing Indianapolis Center
Tue 06:07:54 PM 40.8214 -81.6092 232° Southwest 132 152 4,800 672 Climbing Indianapolis Center
Tue 06:08:57 PM 40.7986 -81.6558 237° Southwest 141 162 5,500 528 Climbing Indianapolis Center
Tue 06:09:59 PM 40.7744 -81.6997 234° Southwest 145 167 5,900 194 Climbing Indianapolis Center
Tue 06:10:00 PM 40.7514 -81.6960 235° Southwest  Level FlightAware Approximate
Tue 06:11:01 PM 40.7483 -81.7439 232° Southwest 148 170 5,900  Level Indianapolis Center
Tue 06:12:03 PM 40.7233 -81.7969 238° Southwest 162 186 6,000 48 Climbing Indianapolis Center
Tue 06:13:05 PM 40.6958 -81.8444 233° Southwest 162 186 6,000  Level Indianapolis Center
Tue 06:14:07 PM 40.6686 -81.8925 233° Southwest 162 186 6,000  Level Indianapolis Center
Tue 06:15:09 PM 40.6372 -81.9494 234° Southwest 162 186 6,000  Level Indianapolis Center
Tue 06:16:11 PM 40.6108 -82.0008 236° Southwest 166 191 6,000  Level Indianapolis Center
Tue 06:17:13 PM 40.5833 -82.0483 233° Southwest 162 186 6,000  Level Indianapolis Center
Tue 06:17:59 PM 40.5653 -82.0889 240° Southwest 162 186 6,000  Level Indianapolis Center
Tue 06:18:15 PM 40.5586 -82.0986 228° Southwest 161 185 6,000  Level Indianapolis Center
Tue 06:18:30 PM 40.5511 -82.1147 239° Southwest 162 186 6,000  Level Indianapolis Center
Tue 06:19:17 PM 40.5319 -82.1483 233° Southwest 164 189 6,000  Level Indianapolis Center
Tue 06:20:19 PM 40.5042 -82.1944 232° Southwest 160 184 6,000  Level Indianapolis Center
Tue 06:21:32 PM 40.4689 -82.2625 236° Southwest 163 188 6,000  Level Indianapolis Center
Tue 06:22:23 PM 40.4486 -82.2914 227° Southwest 164 189 6,000  Level Indianapolis Center
Tue 06:23:25 PM 40.4178 -82.3469 234° Southwest 162 186 6,000  Level Indianapolis Center
Tue 06:24:27 PM 40.3906 -82.3956 234° Southwest 164 189 6,000  Level Indianapolis Center
Tue 06:25:36 PM 40.3586 -82.4558 235° Southwest 162 186 6,000  Level Indianapolis Center
Tue 06:26:31 PM 40.3372 -82.4908 231° Southwest 160 184 6,000  Level Indianapolis Center
Tue 06:27:33 PM 40.3097 -82.5383 233° Southwest 160 184 6,000  Level Indianapolis Center
Tue 06:28:35 PM 40.2833 -82.5867 234° Southwest 162 186 6,000  Level Indianapolis Center
Tue 06:29:37 PM 40.2558 -82.6347 233° Southwest 162 186 6,000  Level Indianapolis Center
Tue 06:30:40 PM 40.2219 -82.6922 232° Southwest 162 186 6,000  Level Indianapolis Center
Tue 06:31:42 PM 40.1989 -82.7322 233° Southwest 161 185 6,000  Level Indianapolis Center
Tue 06:32:42 PM 40.1656 -82.7869 231° Southwest 164 189 6,000  Level Indianapolis Center
Tue 06:33:43 PM 40.1394 -82.8331 233° Southwest 166 191 6,000  Level Indianapolis Center
Tue 06:34:44 PM 40.1111 -82.8817 233° Southwest 167 192 6,000  Level Indianapolis Center
Tue 06:35:45 PM 40.0825 -82.9331 234° Southwest 165 190 6,000  Level Indianapolis Center
Tue 06:36:46 PM 40.0542 -82.9814 233° Southwest 163 188 6,000  Level Indianapolis Center
Tue 06:37:46 PM 40.0281 -83.0275 234° Southwest 164 189 6,000  Level Indianapolis Center
Tue 06:38:47 PM 40.0017 -83.0761 235° Southwest 165 190 6,000  Level Indianapolis Center
Tue 06:39:48 PM 39.9708 -83.1269 232° Southwest 171 197 6,000  Level Indianapolis Center
Tue 06:40:49 PM 39.9422 -83.1781 234° Southwest 166 191 6,000  Level Indianapolis Center
Tue 06:41:50 PM 39.9139 -83.2236 231° Southwest 166 191 6,000  Level Indianapolis Center
Tue 06:42:51 PM 39.8856 -83.2719 233° Southwest 168 193 6,000  Level Indianapolis Center
Tue 06:43:52 PM 39.8547 -83.3225 232° Southwest 169 194 6,000  Level Indianapolis Center
Tue 06:44:53 PM 39.8261 -83.3706 232° Southwest 168 193 6,000  Level Indianapolis Center
Tue 06:45:08 PM 39.8211 -83.3786 231° Southwest 169 194 6,000  Level Indianapolis Center
Tue 06:45:53 PM 39.7975 -83.4189 233° Southwest 171 197 6,000  Level Indianapolis Center
Tue 06:46:10 PM 39.7919 -83.4289 234° Southwest 169 194 6,000  Level Indianapolis Center
Tue 06:46:54 PM 39.7686 -83.4697 233° Southwest 170 196 6,000  Level Indianapolis Center
Tue 06:47:12 PM 39.7633 -83.4797 236° Southwest 170 196 6,000  Level Indianapolis Center
Tue 06:47:55 PM 39.7419 -83.5206 236° Southwest 168 193 6,000  Level Indianapolis Center
Tue 06:48:14 PM 39.7358 -83.5294 228° Southwest 168 193 6,000  Level Indianapolis Center
Tue 06:48:56 PM 39.7133 -83.5686 233° Southwest 166 191 6,000  Level Indianapolis Center
Tue 06:49:16 PM 39.7075 -83.5786 233° Southwest 167 192 6,000  Level Indianapolis Center
Tue 06:49:57 PM 39.6847 -83.6167 232° Southwest 167 192 6,000  Level Indianapolis Center
Tue 06:50:18 PM 39.6797 -83.6264 236° Southwest 166 191 6,000  Level Indianapolis Center
Tue 06:50:58 PM 39.6558 -83.6644 231° Southwest 165 190 6,000  Level Indianapolis Center
Tue 06:51:20 PM 39.6450 -83.6814 230° Southwest 166 191 6,000  Level Indianapolis Center
Tue 06:52:23 PM 39.6161 -83.7281 231° Southwest 165 190 6,000  Level Indianapolis Center
Tue 06:53:25 PM 39.5867 -83.7753 231° Southwest 166 191 6,000  Level Indianapolis Center
Tue 06:54:27 PM 39.5586 -83.8217 232° Southwest 165 190 6,000  Level Indianapolis Center
Tue 06:55:29 PM 39.5297 -83.8692 232° Southwest 165 190 6,000  Level Indianapolis Center
Tue 06:56:31 PM 39.5022 -83.9150 232° Southwest 163 188 6,000  Level Indianapolis Center
Tue 06:57:33 PM 39.4742 -83.9625 233° Southwest 163 188 6,000 -48 Level Indianapolis Center
Tue 06:58:35 PM 39.4461 -84.0086 232° Southwest 163 188 5,900 -48 Descending Indianapolis Center
Tue 06:59:37 PM 39.4214 -84.0689 242° Southwest 161 185 5,900  Level Indianapolis Center
Tue 07:00:39 PM 39.4139 -84.1289 261° West 166 191 5,900 48 Level Indianapolis Center
Tue 07:01:41 PM 39.4061 -84.1886 260° West 166 191 6,000 48 Climbing Indianapolis Center
Tue 07:02:43 PM 39.3981 -84.2478 260° West 166 191 6,000 -48 Level Indianapolis Center
Tue 07:03:45 PM 39.3842 -84.3061 253° West 167 192 5,900 -97 Descending Indianapolis Center
Tue 07:04:47 PM 39.3661 -84.3622 247° West 168 193 5,800 -339 Descending Indianapolis Center
Tue 07:05:49 PM 39.3419 -84.4167 240° Southwest 172 198 5,200 -581 Descending Indianapolis Center
Tue 07:06:51 PM 39.3028 -84.4733 228° Southwest 177 204 4,600 -581 Descending Indianapolis Center
Tue 07:07:53 PM 39.2636 -84.5164 220° Southwest 180 207 4,000 -435 Descending Indianapolis Center
Tue 07:08:55 PM 39.2289 -84.5500 217° Southwest 182 209 3,700 -477 Descending Indianapolis Center
Tue 07:10:49 PM 39.1500 -84.6167 213° Southwest 177 204 2,600 -655 Descending Cincinnati TRACON
Tue 07:11:49 PM 39.1000 -84.6500 207° Southwest 173 199 1,800 -800 Descending Cincinnati TRACON
Tue 07:13:00 PM 39.0488 -84.6678 237° Southwest  Level Estimated
Tue 07:20:00 PM 39.0488 -84.6678 237° Southwest  Level Estimated

Login

Don't have an account? Register now (free) for customized features, flight alerts, and more!